Time;durP1;ratioP1;P1;durP2;ratioP2;P2;SDS_P1;SDS_P2;PMS_P1;PMS_P2;Temp;Humidity;BMP_temperature;BMP_pressure;BME280_temperature;BME280_humidity;BME280_pressure;Samples;Min_cycle;Max_cycle;Signal;HPM_P1;HPM_P2
2021/12/30 00:01:07;;;;;;;;;1.00;1.00;;;;;14.70;90.85;100798.81;5057535;28;45441;-66
2021/12/30 00:03:33;;;;;;;;;1.25;1.00;;;;;14.67;91.29;100798.97;5059102;28;45197;-71
2021/12/30 00:05:58;;;;;;;;;1.00;1.00;;;;;14.68;91.34;100798.03;5057991;28;45387;-66
2021/12/30 00:08:24;;;;;;;;;0.00;0.00;;;;;14.68;91.31;100804.16;5060073;28;45334;-72
2021/12/30 00:10:50;;;;;;;;;2.25;1.25;;;;;14.69;91.23;100795.28;5059151;28;45410;-75
2021/12/30 00:13:16;;;;;;;;;2.25;2.25;;;;;14.69;91.06;100803.22;5059441;28;45485;-70
2021/12/30 00:15:42;;;;;;;;;4.00;2.25;;;;;14.67;91.20;100805.09;5059474;28;45332;-66
2021/12/30 00:18:09;;;;;;;;;1.25;1.25;;;;;14.68;91.15;100803.31;5058657;28;45854;-71
2021/12/30 00:20:34;;;;;;;;;1.00;1.00;;;;;14.62;91.19;100799.19;5057607;28;46904;-66
2021/12/30 00:23:03;;;;;;;;;2.25;1.75;;;;;14.69;91.15;100816.47;5057737;28;45307;-70
2021/12/30 00:25:29;;;;;;;;;3.75;1.00;;;;;14.69;91.26;100807.69;5057682;28;45246;-59
2021/12/30 00:27:54;;;;;;;;;2.00;1.00;;;;;14.69;91.38;100807.69;5056962;28;45403;-64
2021/12/30 00:30:20;;;;;;;;;2.50;1.00;;;;;14.70;91.34;100804.97;5059179;28;46247;-67
2021/12/30 00:32:45;;;;;;;;;2.75;1.50;;;;;14.69;91.13;100808.50;5057878;28;45328;-74
2021/12/30 00:35:12;;;;;;;;;2.00;2.00;;;;;14.70;91.13;100810.25;5057981;28;45396;-71
2021/12/30 00:37:38;;;;;;;;;1.00;1.00;;;;;14.69;90.89;100805.88;5024339;28;45338;-72
2021/12/30 00:40:04;;;;;;;;;0.00;0.00;;;;;14.67;91.18;100801.59;5059591;28;45840;-72
2021/12/30 00:42:30;;;;;;;;;1.50;1.00;;;;;14.67;91.18;100807.75;5039650;28;45233;-61
2021/12/30 00:44:55;;;;;;;;;0.00;0.00;;;;;14.67;91.17;100818.34;5057812;28;45455;-58
2021/12/30 00:47:20;;;;;;;;;1.75;1.75;;;;;14.69;91.43;100820.91;5057990;28;45324;-74
2021/12/30 00:49:46;;;;;;;;;1.00;1.00;;;;;14.69;91.44;100812.97;5060647;28;46131;-73
2021/12/30 00:52:11;;;;;;;;;1.00;0.25;;;;;14.69;91.12;100820.91;5056950;28;45305;-63
2021/12/30 00:54:37;;;;;;;;;1.00;1.00;;;;;14.67;91.29;100826.28;5057640;28;45348;-63
2021/12/30 00:57:02;;;;;;;;;1.00;1.00;;;;;14.71;91.60;100833.16;5057188;28;45303;-62
2021/12/30 00:59:27;;;;;;;;;2.00;1.00;;;;;14.72;91.05;100829.56;5056962;28;46147;-73
2021/12/30 01:01:53;;;;;;;;;4.25;2.50;;;;;14.72;91.71;100834.03;5060738;28;45255;-67
2021/12/30 01:04:20;;;;;;;;;2.00;2.00;;;;;14.74;90.83;100840.09;5062164;28;45351;-62
2021/12/30 01:06:46;;;;;;;;;3.00;1.75;;;;;14.72;91.10;100832.22;5057290;28;45542;-62
2021/12/30 01:09:11;;;;;;;;;1.00;1.00;;;;;14.74;91.37;100840.94;5057706;28;45449;-73
2021/12/30 01:11:37;;;;;;;;;3.00;2.00;;;;;14.74;91.15;100842.75;5062506;28;45393;-72
2021/12/30 01:14:10;;;;;;;;;0.75;0.75;;;;;14.74;91.27;100848.03;5059972;28;45290;-70
2021/12/30 01:16:42;;;;;;;;;2.00;1.00;;;;;14.71;91.36;100845.53;5059310;28;45481;-74
2021/12/30 01:21:46;;;;;;;;;3.00;1.00;;;;;14.71;91.43;100866.72;5060385;28;45443;-72
2021/12/30 01:24:12;;;;;;;;;1.00;1.00;;;;;14.66;91.54;100863.44;5042263;28;45420;-73
2021/12/30 01:26:37;;;;;;;;;1.67;0.33;;;;;14.69;91.50;100871.22;5060215;28;45637;-76
2021/12/30 01:29:03;;;;;;;;;3.00;1.00;;;;;14.66;91.48;100869.56;5062083;28;45977;-73
2021/12/30 01:31:29;;;;;;;;;1.75;1.75;;;;;14.67;91.80;100881.88;5061241;28;45278;-74
2021/12/30 01:33:55;;;;;;;;;1.00;1.00;;;;;14.69;91.75;100880.00;5060208;28;45241;-68
2021/12/30 01:36:21;;;;;;;;;2.00;1.00;;;;;14.68;92.10;100882.75;5061919;28;45240;-69
2021/12/30 01:38:47;;;;;;;;;1.00;1.00;;;;;14.69;92.35;100892.41;5059559;28;46559;-73
2021/12/30 01:41:14;;;;;;;;;1.00;1.00;;;;;14.66;92.47;100897.84;5061216;28;45347;-72
2021/12/30 01:43:40;;;;;;;;;0.00;0.00;;;;;14.66;92.43;100897.84;5060145;28;45429;-68
2021/12/30 01:46:07;;;;;;;;;1.00;1.00;;;;;14.65;92.77;100899.63;5059659;28;45378;-73
2021/12/30 01:48:33;;;;;;;;;1.00;1.00;;;;;14.64;93.09;100897.09;5059593;28;46292;-74
2021/12/30 01:50:58;;;;;;;;;2.00;1.00;;;;;14.65;93.20;100899.63;5060044;28;45455;-73
2021/12/30 01:53:24;;;;;;;;;1.50;1.50;;;;;14.63;93.09;100898.84;5060867;28;45320;-74
2021/12/30 01:55:50;;;;;;;;;2.00;2.00;;;;;14.63;93.37;100901.50;5061197;28;45319;-72
2021/12/30 01:58:16;;;;;;;;;1.00;1.00;;;;;14.59;93.17;100897.31;5059987;28;47235;-74
2021/12/30 02:00:43;;;;;;;;;1.00;1.00;;;;;14.60;93.17;100896.38;5059746;28;45383;-63
2021/12/30 02:03:09;;;;;;;;;1.00;1.00;;;;;14.59;93.36;100902.59;5058915;28;45380;-70
2021/12/30 02:05:37;;;;;;;;;2.25;1.25;;;;;14.60;93.68;100904.31;5062417;28;45577;-72
2021/12/30 02:08:03;;;;;;;;;1.50;1.50;;;;;14.55;93.51;100887.81;5059361;28;45432;-64
2021/12/30 02:10:28;;;;;;;;;2.00;1.00;;;;;14.58;93.82;100900.88;5059649;28;45213;-72
2021/12/30 02:12:54;;;;;;;;;2.00;2.00;;;;;14.58;93.89;100906.19;5062170;28;45285;-64
2021/12/30 02:15:20;;;;;;;;;1.50;1.00;;;;;14.57;94.16;100909.78;5059764;28;45580;-68
2021/12/30 02:17:48;;;;;;;;;1.00;1.00;;;;;14.55;94.07;100911.63;5060835;28;46080;-74
2021/12/30 02:20:46;;;;;;;;;1.00;1.00;;;;;14.56;94.03;100916.88;5065438;28;45521;-73
2021/12/30 02:23:14;;;;;;;;;2.50;2.00;;;;;14.51;94.09;100910.09;5063165;28;45261;-74
2021/12/30 02:25:40;;;;;;;;;3.00;1.75;;;;;14.56;94.09;100921.28;5060210;28;45505;-74
2021/12/30 02:28:07;;;;;;;;;2.00;2.00;;;;;14.40;94.11;100895.63;5060809;28;45698;-71
2021/12/30 02:30:33;;;;;;;;;2.00;2.00;;;;;14.53;93.97;100914.38;5062126;28;45256;-73
2021/12/30 02:32:59;;;;;;;;;1.50;1.00;;;;;14.56;93.88;100924.81;5058902;28;45381;-64
2021/12/30 02:35:24;;;;;;;;;1.75;1.00;;;;;14.56;93.88;100931.88;5059105;28;45762;-66
2021/12/30 02:37:51;;;;;;;;;1.00;1.00;;;;;14.58;93.62;100924.72;5057276;28;47085;-71
2021/12/30 02:40:26;;;;;;;;;2.00;1.00;;;;;14.58;93.68;100932.66;5058603;28;45463;-63
2021/12/30 02:42:52;;;;;;;;;2.00;0.00;;;;;14.58;93.67;100936.19;5062551;28;45321;-66
2021/12/30 02:45:17;;;;;;;;;1.00;1.00;;;;;14.58;93.21;100935.31;5065294;28;45502;-73
2021/12/30 02:47:44;;;;;;;;;0.00;0.00;;;;;14.59;93.51;100934.38;5059598;28;46174;-63
2021/12/30 02:50:10;;;;;;;;;3.00;1.00;;;;;14.61;93.31;100941.31;5058634;28;45293;-68
2021/12/30 02:52:35;;;;;;;;;1.75;1.00;;;;;14.63;93.50;100943.88;5060770;28;45347;-64
2021/12/30 02:55:00;;;;;;;;;1.00;1.00;;;;;14.63;93.25;100950.97;5060272;28;45564;-65
2021/12/30 02:57:26;;;;;;;;;1.00;1.00;;;;;14.64;93.30;100960.63;5058696;28;45185;-70
2021/12/30 02:59:51;;;;;;;;;2.00;1.00;;;;;14.65;93.08;100954.41;5062705;28;45316;-72
2021/12/30 03:02:17;;;;;;;;;4.00;0.75;;;;;14.64;92.85;100958.81;5070699;28;45225;-75
2021/12/30 03:04:42;;;;;;;;;0.25;0.25;;;;;14.64;92.97;100948.22;5059835;28;45602;-74
2021/12/30 03:07:08;;;;;;;;;3.00;1.00;;;;;14.66;92.84;100948.16;5061138;28;45928;-71
2021/12/30 03:09:33;;;;;;;;;0.75;0.75;;;;;14.65;93.07;100952.59;5060396;28;45352;-69
2021/12/30 03:11:59;;;;;;;;;0.25;0.00;;;;;14.67;92.87;100952.53;5060394;28;45317;-66
2021/12/30 03:14:26;;;;;;;;;3.25;0.75;;;;;14.66;92.66;100949.00;5058145;28;45495;-69
2021/12/30 03:16:52;;;;;;;;;1.00;1.00;;;;;14.65;92.79;100947.28;5061654;28;45934;-64
2021/12/30 03:19:17;;;;;;;;;0.00;0.00;;;;;14.62;92.41;100939.50;5058015;28;45439;-66
2021/12/30 03:21:43;;;;;;;;;0.00;0.00;;;;;14.65;92.65;100942.00;5057612;28;45353;-65
2021/12/30 03:24:08;;;;;;;;;0.00;0.00;;;;;14.67;92.53;100952.53;5058676;28;45438;-66
2021/12/30 03:26:35;;;;;;;;;0.00;0.00;;;;;14.67;92.62;100956.00;5057919;28;45474;-66
2021/12/30 03:29:01;;;;;;;;;1.00;0.00;;;;;14.67;92.25;100960.47;5057702;28;45336;-63
2021/12/30 03:31:27;;;;;;;;;1.00;0.00;;;;;14.66;91.96;100959.59;5058130;28;45253;-61
2021/12/30 03:33:52;;;;;;;;;1.00;0.00;;;;;14.68;92.19;100964.81;5059451;28;45556;-75
2021/12/30 03:36:19;;;;;;;;;0.67;0.67;;;;;14.68;92.04;100963.00;5059473;28;45528;-72
2021/12/30 03:38:49;;;;;;;;;0.00;0.00;;;;;14.67;91.80;100963.94;5061659;28;45430;-71
2021/12/30 03:41:17;;;;;;;;;0.00;0.00;;;;;14.66;91.76;100954.28;5058878;28;45257;-75
2021/12/30 03:43:43;;;;;;;;;0.00;0.00;;;;;14.71;91.70;100960.25;5058332;28;45323;-71
2021/12/30 03:46:09;;;;;;;;;0.00;0.00;;;;;14.72;91.54;100961.94;5058138;28;45240;-63
2021/12/30 03:48:40;;;;;;;;;0.50;0.00;;;;;14.72;91.57;100955.81;5058895;28;45454;-73
2021/12/30 03:51:09;;;;;;;;;2.00;2.00;;;;;14.72;91.17;100955.81;5058772;28;45298;-74
2021/12/30 03:53:39;;;;;;;;;0.00;0.00;;;;;14.73;91.44;100963.66;5062184;28;45379;-73
2021/12/30 03:56:09;;;;;;;;;0.00;0.00;;;;;14.73;91.21;100949.59;5062005;28;45163;-72
2021/12/30 03:58:36;;;;;;;;;0.00;0.00;;;;;14.73;91.23;100950.44;5058750;28;45518;-73
2021/12/30 04:01:02;;;;;;;;;0.00;0.00;;;;;14.73;91.20;100946.94;5059399;28;45344;-68
2021/12/30 04:03:28;;;;;;;;;0.00;0.00;;;;;14.72;91.26;100951.38;5059949;28;45347;-73
2021/12/30 04:05:53;;;;;;;;;0.00;0.00;;;;;14.71;90.77;100954.94;5059082;28;45334;-74
2021/12/30 04:08:18;;;;;;;;;0.00;0.00;;;;;14.70;90.84;100952.41;5058954;28;45278;-75
2021/12/30 04:10:44;;;;;;;;;0.00;0.00;;;;;14.69;91.03;100951.50;5058116;28;45429;-72
2021/12/30 04:13:09;;;;;;;;;0.00;0.00;;;;;14.69;90.75;100943.53;5058381;28;45485;-71
2021/12/30 04:15:35;;;;;;;;;0.33;0.00;;;;;14.70;90.67;100947.94;5058761;28;45740;-67
2021/12/30 04:18:00;;;;;;;;;0.00;0.00;;;;;14.71;91.00;100952.28;5061682;28;45267;-71
2021/12/30 04:20:26;;;;;;;;;4.00;0.50;;;;;14.71;90.48;100952.28;5060576;28;45404;-69
2021/12/30 04:22:51;;;;;;;;;0.00;0.00;;;;;14.70;90.51;100955.88;5058686;28;45582;-72
2021/12/30 04:25:17;;;;;;;;;0.00;0.00;;;;;14.73;90.64;100954.88;5058165;28;45405;-74
2021/12/30 04:27:43;;;;;;;;;0.00;0.00;;;;;14.78;90.31;100965.22;5059176;28;45292;-74
2021/12/30 04:30:12;;;;;;;;;0.50;0.00;;;;;14.78;90.44;100952.84;5059313;28;45409;-73
2021/12/30 04:32:37;;;;;;;;;2.00;0.00;;;;;14.80;90.26;100944.81;5058378;28;45441;-72
2021/12/30 04:35:03;;;;;;;;;2.00;0.00;;;;;14.81;90.03;100946.53;5058420;28;45550;-74
2021/12/30 04:37:29;;;;;;;;;0.00;0.00;;;;;14.81;90.01;100943.88;5058514;28;45390;-73
2021/12/30 04:39:54;;;;;;;;;0.50;0.50;;;;;14.77;89.97;100929.94;5060334;28;45281;-75
2021/12/30 04:42:20;;;;;;;;;0.00;0.00;;;;;14.85;89.68;100942.81;5059709;28;45258;-72
2021/12/30 04:44:47;;;;;;;;;0.00;0.00;;;;;14.86;89.57;100950.66;5057811;28;45290;-72
2021/12/30 04:47:14;;;;;;;;;0.00;0.00;;;;;14.87;89.43;100949.72;5062944;28;45287;-72
2021/12/30 04:49:40;;;;;;;;;0.33;0.00;;;;;14.83;89.28;100936.69;5065432;28;45276;-73
2021/12/30 04:52:05;;;;;;;;;0.00;0.00;;;;;14.85;89.23;100943.66;5058936;28;45369;-74
2021/12/30 04:54:31;;;;;;;;;2.00;0.00;;;;;14.86;89.48;100945.34;5061699;28;45320;-74
2021/12/30 04:56:56;;;;;;;;;0.50;0.00;;;;;14.86;89.01;100949.81;5061107;28;45356;-73
2021/12/30 04:59:21;;;;;;;;;0.00;0.00;;;;;14.86;89.26;100955.13;5064569;28;45416;-74
2021/12/30 05:01:47;;;;;;;;;0.00;0.00;;;;;14.82;89.13;100957.06;5067270;28;45422;-74
2021/12/30 05:04:12;;;;;;;;;1.00;1.00;;;;;14.77;88.81;100955.56;5066765;28;46163;-68
2021/12/30 05:06:38;;;;;;;;;2.00;0.00;;;;;14.68;89.25;100959.53;5061740;28;45311;-70
2021/12/30 05:09:08;;;;;;;;;0.00;0.00;;;;;14.59;89.71;100971.44;5061189;28;45432;-74
2021/12/30 05:11:34;;;;;;;;;3.00;0.00;;;;;14.46;89.69;100976.50;5061257;28;45371;-73
2021/12/30 05:13:59;;;;;;;;;0.33;0.00;;;;;14.45;89.66;100988.03;5060643;28;45500;-74
2021/12/30 05:16:25;;;;;;;;;1.33;0.00;;;;;14.40;89.96;100987.41;5062620;28;45367;-74
2021/12/30 05:18:55;;;;;;;;;0.00;0.00;;;;;14.36;90.11;100991.97;5062967;28;45435;-75
2021/12/30 05:21:21;;;;;;;;;1.00;1.00;;;;;14.35;90.38;100990.25;5063081;28;45467;-75
2021/12/30 05:23:46;;;;;;;;;1.00;1.00;;;;;14.34;90.48;100985.91;5062557;28;45336;-74
2021/12/30 05:26:15;;;;;;;;;1.00;0.75;;;;;14.32;90.36;100985.13;5062191;28;45281;-74
2021/12/30 05:28:40;;;;;;;;;0.75;0.00;;;;;14.24;90.47;100974.06;5061360;28;45462;-71
2021/12/30 05:31:05;;;;;;;;;0.75;0.75;;;;;14.23;90.36;100973.19;5059265;28;45462;-65
2021/12/30 05:33:31;;;;;;;;;0.50;0.50;;;;;14.25;90.84;100983.72;5059727;28;46761;-67
2021/12/30 05:35:56;;;;;;;;;1.00;1.00;;;;;14.19;90.90;100987.50;5059940;28;45347;-63
2021/12/30 05:38:22;;;;;;;;;2.67;1.00;;;;;14.15;90.86;100992.09;5059669;28;45287;-66
2021/12/30 05:40:47;;;;;;;;;1.33;0.00;;;;;14.11;90.83;100985.25;5060447;28;45404;-68
2021/12/30 05:43:12;;;;;;;;;1.75;1.75;;;;;14.10;91.08;100993.25;5061035;28;46264;-73
2021/12/30 05:45:38;;;;;;;;;0.00;0.00;;;;;14.04;91.25;101002.34;5059370;28;45636;-68
2021/12/30 05:48:04;;;;;;;;;0.00;0.00;;;;;13.90;91.46;100999.50;5062502;28;45370;-70
2021/12/30 05:50:33;;;;;;;;;1.75;0.00;;;;;13.94;91.86;101016.94;5063844;28;45527;-69
2021/12/30 05:52:59;;;;;;;;;0.25;0.25;;;;;13.90;91.85;101026.78;5060453;28;46162;-63
2021/12/30 05:55:24;;;;;;;;;3.50;1.00;;;;;13.84;92.10;101014.75;5059990;28;45347;-68
2021/12/30 05:57:52;;;;;;;;;4.00;1.00;;;;;13.81;92.17;101025.47;5060287;28;45442;-69
2021/12/30 06:00:19;;;;;;;;;1.00;1.00;;;;;13.78;92.29;101030.00;5060877;28;45475;-66
2021/12/30 06:02:45;;;;;;;;;2.67;0.00;;;;;13.73;92.60;101035.50;5062736;28;46251;-70
2021/12/30 06:05:11;;;;;;;;;0.00;0.00;;;;;13.69;92.75;101026.00;5060725;28;45261;-69
2021/12/30 06:07:37;;;;;;;;;1.75;1.00;;;;;13.62;92.94;101025.44;5060296;28;45243;-73
2021/12/30 06:10:04;;;;;;;;;0.75;0.75;;;;;13.59;92.93;101034.34;5060863;28;45301;-72
2021/12/30 06:12:29;;;;;;;;;1.00;1.00;;;;;13.57;93.32;101038.00;5061899;28;45416;-72
2021/12/30 06:14:55;;;;;;;;;5.75;1.00;;;;;13.54;93.38;101038.16;5060250;28;45336;-67
2021/12/30 06:17:21;;;;;;;;;1.25;1.00;;;;;13.47;93.19;101031.44;5060477;28;45358;-66
2021/12/30 06:19:46;;;;;;;;;5.75;1.25;;;;;13.47;93.37;101031.44;5060392;28;45465;-66
2021/12/30 06:22:13;;;;;;;;;2.00;1.25;;;;;13.47;93.41;101044.66;5060256;28;46170;-71
2021/12/30 06:24:39;;;;;;;;;3.50;2.00;;;;;13.42;93.45;101043.06;5060156;28;45248;-71
2021/12/30 06:27:05;;;;;;;;;2.25;1.00;;;;;13.40;93.61;101039.59;5042534;28;45261;-69
2021/12/30 06:29:30;;;;;;;;;2.00;2.00;;;;;13.36;93.49;101038.03;5060589;28;45349;-71
2021/12/30 06:31:56;;;;;;;;;1.00;1.00;;;;;13.32;93.51;101032.94;5059721;28;45352;-71
2021/12/30 06:34:21;;;;;;;;;3.00;2.00;;;;;13.33;93.80;101037.28;5062366;28;45358;-72
2021/12/30 06:36:47;;;;;;;;;3.50;2.25;;;;;13.29;93.77;101040.06;5058590;28;45394;-59
2021/12/30 06:39:12;;;;;;;;;2.00;2.00;;;;;13.26;93.97;101042.84;5058498;28;45415;-71
2021/12/30 06:41:38;;;;;;;;;2.00;1.75;;;;;13.22;94.05;101049.19;5058259;28;46060;-71
2021/12/30 06:44:03;;;;;;;;;3.75;2.00;;;;;13.21;94.09;101052.75;5057717;28;45193;-70
2021/12/30 06:46:29;;;;;;;;;4.25;2.00;;;;;13.19;94.33;101056.38;5059045;28;45266;-66
2021/12/30 06:48:54;;;;;;;;;3.00;1.50;;;;;13.15;94.23;101063.59;5059555;28;45261;-73
2021/12/30 06:51:23;;;;;;;;;4.50;1.75;;;;;13.13;94.62;101060.16;5059449;28;46209;-71
2021/12/30 06:53:49;;;;;;;;;4.50;3.00;;;;;13.08;94.57;101052.41;5058750;28;45304;-65
2021/12/30 06:56:15;;;;;;;;;3.50;2.00;;;;;13.07;94.69;101053.34;5062215;28;45396;-73
2021/12/30 06:58:41;;;;;;;;;13.25;7.75;;;;;13.06;94.80;101061.34;5064242;28;45363;-71
2021/12/30 07:01:07;;;;;;;;;4.00;3.00;;;;;13.02;94.70;101065.03;5060490;28;45437;-59
2021/12/30 07:03:32;;;;;;;;;3.00;1.75;;;;;12.99;94.98;101071.31;5057949;28;45290;-61
2021/12/30 07:05:58;;;;;;;;;2.50;1.00;;;;;12.96;94.98;101063.50;5060289;28;45322;-63
2021/12/30 07:08:23;;;;;;;;;4.50;1.00;;;;;12.93;95.08;101072.44;5060342;28;45211;-61
2021/12/30 07:10:50;;;;;;;;;3.00;2.75;;;;;12.92;94.94;101070.72;5067140;28;46056;-61
2021/12/30 07:13:15;;;;;;;;;6.75;5.00;;;;;12.93;95.09;101082.13;5063332;28;45389;-66
2021/12/30 07:15:41;;;;;;;;;2.25;2.00;;;;;12.91;95.04;101089.25;5060183;28;45371;-60
2021/12/30 07:18:06;;;;;;;;;2.75;2.00;;;;;12.86;94.80;101082.38;5041869;28;45538;-61
2021/12/30 07:20:32;;;;;;;;;4.00;2.25;;;;;12.81;94.81;101086.16;5061996;28;45441;-63
2021/12/30 07:22:57;;;;;;;;;3.50;3.00;;;;;12.86;94.69;101100.03;5062272;28;45373;-60
2021/12/30 07:25:24;;;;;;;;;2.25;1.50;;;;;12.84;94.93;101086.03;5058099;28;45254;-59
2021/12/30 07:27:52;;;;;;;;;4.50;3.00;;;;;12.85;95.03;101095.66;5058572;28;45372;-58
2021/12/30 07:30:21;;;;;;;;;6.25;3.00;;;;;12.85;95.34;101099.16;5057064;28;46185;-62
2021/12/30 07:32:47;;;;;;;;;3.00;2.75;;;;;12.90;94.75;101100.75;5057410;28;45449;-59
2021/12/30 07:35:15;;;;;;;;;8.50;3.00;;;;;12.92;94.89;101110.31;5038860;28;45344;-65
2021/12/30 07:37:41;;;;;;;;;4.75;2.50;;;;;12.97;94.65;101110.13;5059587;28;45622;-67
2021/12/30 07:40:07;;;;;;;;;4.00;2.50;;;;;13.03;94.49;101114.31;5057384;28;45353;-65
2021/12/30 07:42:32;;;;;;;;;6.50;3.50;;;;;13.08;94.39;101114.97;5056877;28;45281;-66
2021/12/30 07:44:57;;;;;;;;;7.25;3.25;;;;;13.14;94.19;101120.81;5059422;28;45279;-63
2021/12/30 07:47:23;;;;;;;;;5.75;1.50;;;;;13.12;93.75;101101.53;5057214;28;45576;-62
2021/12/30 07:49:48;;;;;;;;;8.00;3.00;;;;;13.23;93.56;101106.38;5057419;28;46214;-59
2021/12/30 07:52:14;;;;;;;;;7.25;3.75;;;;;13.27;93.00;101112.41;5057705;28;45471;-65
2021/12/30 07:54:40;;;;;;;;;6.75;2.75;;;;;13.30;92.99;101121.03;5057055;28;45423;-71
2021/12/30 07:57:06;;;;;;;;;9.00;3.50;;;;;13.35;92.52;101125.28;5056792;28;45546;-67
2021/12/30 07:59:31;;;;;;;;;7.50;6.25;;;;;13.36;92.50;101119.94;5056086;28;45875;-65
2021/12/30 08:01:58;;;;;;;;;5.75;4.00;;;;;13.41;92.25;101123.22;5057836;28;45546;-62
2021/12/30 08:04:23;;;;;;;;;5.00;3.00;;;;;13.46;91.76;101136.25;5056242;28;45315;-67
2021/12/30 08:06:48;;;;;;;;;5.50;4.00;;;;;13.52;91.99;101151.84;5056774;28;45257;-71
2021/12/30 08:09:14;;;;;;;;;6.50;3.00;;;;;13.54;91.54;101147.34;5055241;28;46262;-69
2021/12/30 08:11:39;;;;;;;;;5.25;2.75;;;;;13.58;91.51;101159.50;5055180;28;45238;-65
2021/12/30 08:14:04;;;;;;;;;5.75;4.00;;;;;13.63;91.11;101153.16;5058219;28;45438;-69
2021/12/30 08:16:30;;;;;;;;;5.00;3.00;;;;;13.59;91.13;101155.94;5060244;28;45292;-67
2021/12/30 08:18:56;;;;;;;;;8.25;4.75;;;;;13.66;90.76;101169.75;5058380;28;46325;-74
2021/12/30 08:21:22;;;;;;;;;7.00;2.25;;;;;13.70;90.12;101178.41;5057829;28;45431;-64
2021/12/30 08:23:51;;;;;;;;;9.75;3.00;;;;;13.71;90.04;101170.41;5056115;28;45378;-71
2021/12/30 08:26:16;;;;;;;;;17.50;12.75;;;;;13.73;89.87;101178.28;5053586;28;45494;-75
2021/12/30 08:28:42;;;;;;;;;5.50;3.00;;;;;13.76;89.45;101174.66;5052259;28;47238;-76
2021/12/30 08:31:07;;;;;;;;;7.75;3.00;;;;;13.75;89.28;101179.06;5053863;28;45534;-76
2021/12/30 08:33:33;;;;;;;;;5.75;4.25;;;;;13.79;89.19;101190.38;5055062;28;45447;-77
2021/12/30 08:35:58;;;;;;;;;7.00;3.50;;;;;13.80;89.05;101194.75;5054823;28;45570;-67
2021/12/30 08:38:24;;;;;;;;;4.00;3.50;;;;;13.82;88.80;101203.47;5055729;28;46447;-69
2021/12/30 08:40:49;;;;;;;;;6.00;3.75;;;;;13.86;88.91;101199.75;5050661;28;45921;-70
2021/12/30 08:43:16;;;;;;;;;6.00;2.75;;;;;13.87;88.40;101202.34;5052011;28;45329;-68
2021/12/30 08:45:42;;;;;;;;;9.75;5.00;;;;;13.90;88.54;101208.44;5031799;28;45524;-68
2021/12/30 08:48:08;;;;;;;;;7.50;4.00;;;;;13.91;88.47;101211.00;5051068;28;45514;-69
2021/12/30 08:50:33;;;;;;;;;2.50;2.00;;;;;13.88;87.91;101201.41;5055834;28;45365;-66
2021/12/30 08:52:59;;;;;;;;;5.50;3.25;;;;;13.76;87.83;101185.22;5045598;28;45326;-71
2021/12/30 08:55:25;;;;;;;;;6.25;4.00;;;;;13.91;87.57;101207.50;5056875;28;45534;-78
2021/12/30 08:57:51;;;;;;;;;7.00;4.00;;;;;13.94;87.66;101202.06;5060378;28;46380;-69
2021/12/30 09:00:20;;;;;;;;;8.25;5.00;;;;;14.00;87.67;101205.28;5056870;28;45453;-73
2021/12/30 09:02:46;;;;;;;;;5.00;4.00;;;;;14.02;87.75;101195.50;5053289;28;45506;-79
2021/12/30 09:05:11;;;;;;;;;4.00;2.75;;;;;14.05;87.71;101199.81;5056649;28;45250;-71
2021/12/30 09:07:37;;;;;;;;;8.00;4.00;;;;;14.06;87.30;101203.28;5055882;28;46260;-73
2021/12/30 09:10:06;;;;;;;;;8.00;4.00;;;;;14.10;87.27;101207.50;5057081;28;45966;-71
2021/12/30 09:12:32;;;;;;;;;6.75;5.75;;;;;14.12;87.25;101211.81;5056369;28;45335;-67
2021/12/30 09:14:57;;;;;;;;;8.00;4.75;;;;;14.15;87.01;101218.75;5037532;28;45519;-71
2021/12/30 09:17:22;;;;;;;;;7.25;5.00;;;;;14.17;87.11;101219.53;5056273;28;46148;-63
2021/12/30 09:19:48;;;;;;;;;8.50;4.25;;;;;14.13;87.02;101213.53;5054348;28;45378;-68
2021/12/30 09:22:13;;;;;;;;;7.00;4.00;;;;;14.21;86.87;101223.75;5055167;28;45461;-73
2021/12/30 09:24:38;;;;;;;;;9.75;5.00;;;;;14.21;86.72;101222.91;5036229;28;45538;-70
2021/12/30 09:27:04;;;;;;;;;6.25;5.00;;;;;14.19;86.76;101214.19;5054283;28;46097;-67
2021/12/30 09:29:30;;;;;;;;;8.00;3.75;;;;;14.30;86.43;101228.63;5055367;28;46448;-68
2021/12/30 09:31:58;;;;;;;;;6.00;4.00;;;;;14.32;86.52;101236.53;5054142;28;45510;-69
2021/12/30 09:34:23;;;;;;;;;9.00;6.50;;;;;14.28;86.57;101227.84;5054070;28;45338;-65
2021/12/30 09:36:48;;;;;;;;;7.00;6.00;;;;;14.31;86.37;101232.16;5054027;28;45844;-69
2021/12/30 09:39:15;;;;;;;;;5.00;4.00;;;;;14.38;86.14;101238.03;5053698;28;45559;-67
2021/12/30 09:41:44;;;;;;;;;9.25;7.00;;;;;14.40;86.01;101239.66;5053744;28;45532;-66
2021/12/30 09:44:11;;;;;;;;;7.75;4.00;;;;;14.45;86.28;101236.81;5058335;28;45542;-72
2021/12/30 09:46:37;;;;;;;;;8.25;4.25;;;;;14.50;85.75;101236.59;5057824;28;45392;-65
2021/12/30 09:49:05;;;;;;;;;4.75;4.00;;;;;14.55;85.33;101238.13;5052130;28;45190;-72
2021/12/30 09:51:30;;;;;;;;;7.75;3.75;;;;;14.58;85.27;101231.81;5056357;28;45419;-72
2021/12/30 09:53:56;;;;;;;;;5.25;5.25;;;;;14.60;85.13;101229.94;5054647;28;45442;-73
2021/12/30 09:56:22;;;;;;;;;8.25;5.50;;;;;14.61;84.90;101223.72;5056408;28;46538;-70
2021/12/30 09:58:47;;;;;;;;;6.00;5.00;;;;;14.75;84.78;101245.13;5039932;28;45408;-69
2021/12/30 10:01:14;;;;;;;;;5.50;4.00;;;;;14.77;84.25;101244.22;5037778;28;45454;-68
2021/12/30 10:03:39;;;;;;;;;6.00;4.00;;;;;14.80;84.14;101247.59;5038461;28;45427;-62
2021/12/30 10:06:07;;;;;;;;;3.50;3.50;;;;;14.85;83.93;101244.72;5037433;28;45317;-68
2021/12/30 10:08:39;;;;;;;;;7.00;4.00;;;;;14.86;83.50;101251.75;5036550;28;45592;-60
2021/12/30 10:11:11;;;;;;;;;4.50;3.75;;;;;14.89;83.62;101241.00;5037188;28;45392;-60
2021/12/30 10:13:39;;;;;;;;;5.00;3.00;;;;;14.89;83.12;101246.31;5037592;28;45532;-75
2021/12/30 10:16:11;;;;;;;;;7.25;4.00;;;;;14.95;83.44;101246.00;5037441;28;47626;-66
2021/12/30 10:18:46;;;;;;;;;7.00;4.00;;;;;14.99;83.33;101249.34;5040394;28;45404;-67
2021/12/30 10:21:14;;;;;;;;;7.00;5.00;;;;;15.02;83.54;101252.72;5040593;28;45466;-67
2021/12/30 10:23:48;;;;;;;;;8.00;5.00;;;;;15.08;83.17;101245.41;5038497;28;45433;-66
2021/12/30 10:26:13;;;;;;;;;7.00;5.00;;;;;15.10;83.17;101244.38;5039054;28;45429;-71
2021/12/30 10:28:40;;;;;;;;;6.00;4.75;;;;;15.17;82.88;101251.09;5036750;28;45482;-69
2021/12/30 10:31:11;;;;;;;;;5.50;4.00;;;;;15.25;83.00;101252.53;5037737;28;45448;-73
2021/12/30 10:33:46;;;;;;;;;5.25;4.00;;;;;15.32;82.65;101259.22;5041071;28;45562;-74
2021/12/30 10:36:30;;;;;;;;;10.25;7.00;;;;;15.39;82.50;101259.81;5036207;28;48610;-68
2021/12/30 10:39:17;;;;;;;;;4.50;4.25;;;;;15.44;82.42;101263.06;5036817;28;45422;-59
2021/12/30 10:41:43;;;;;;;;;5.50;4.00;;;;;15.50;81.68;101261.94;5035751;28;45451;-74
2021/12/30 10:44:09;;;;;;;;;5.50;4.00;;;;;15.50;81.60;101264.59;5036552;28;45364;-77
2021/12/30 10:46:34;;;;;;;;;8.50;5.00;;;;;15.50;81.11;101264.59;5035983;28;46287;-74
2021/12/30 10:49:06;;;;;;;;;5.75;3.50;;;;;15.47;81.33;101257.63;5039137;28;45345;-68
2021/12/30 10:51:34;;;;;;;;;7.00;5.00;;;;;15.53;81.57;101253.81;5019134;28;45310;-70
2021/12/30 10:54:19;;;;;;;;;9.50;8.75;;;;;15.53;81.52;101249.34;5037996;28;45452;-68
2021/12/30 10:56:53;;;;;;;;;8.25;5.00;;;;;15.61;81.36;101249.00;5036807;28;47101;-71
2021/12/30 10:59:22;;;;;;;;;7.25;3.00;;;;;15.69;81.33;101251.22;5036318;28;45422;-72
2021/12/30 11:01:54;;;;;;;;;5.50;3.00;;;;;15.72;80.82;101241.34;5035903;28;45337;-72
2021/12/30 11:04:21;;;;;;;;;6.25;4.00;;;;;15.77;80.78;101238.44;5035419;28;45566;-73
2021/12/30 11:06:47;;;;;;;;;4.75;3.00;;;;;15.80;80.49;101242.72;5036514;28;45281;-67
2021/12/30 11:09:20;;;;;;;;;7.50;4.00;;;;;15.83;80.26;101243.41;5036530;28;45251;-73
2021/12/30 11:11:48;;;;;;;;;2.50;2.00;;;;;15.82;79.83;101241.69;5037858;28;45402;-75
2021/12/30 11:14:17;;;;;;;;;4.00;2.50;;;;;15.83;79.93;101242.56;5037529;28;45602;-73
2021/12/30 11:17:13;;;;;;;;;5.00;3.50;;;;;15.87;80.08;101245.00;5036828;28;46182;-70
2021/12/30 11:19:46;;;;;;;;;5.00;3.00;;;;;15.89;80.11;101251.09;5018522;28;45445;-65
2021/12/30 11:22:17;;;;;;;;;3.00;3.00;;;;;15.96;80.03;101250.78;5036580;28;45371;-69
2021/12/30 11:24:44;;;;;;;;;5.50;3.50;;;;;15.95;79.69;101247.28;5036629;28;45300;-70